Time;durP1;ratioP1;P1;durP2;ratioP2;P2;SDS_P1;SDS_P2;PMS_P1;PMS_P2;Temp;Humidity;BMP_temperature;BMP_pressure;BME280_temperature;BME280_humidity;BME280_pressure;Samples;Min_cycle;Max_cycle;Signal;HPM_P1;HPM_P2
2021/04/18 00:01:31;;;;;;;2.55;1.75;;;12.00;53.60;;;;;;5024697;28;20032;-83
2021/04/18 00:03:56;;;;;;;2.65;1.65;;;11.90;53.60;;;;;;5007847;28;20053;-83
2021/04/18 00:06:23;;;;;;;2.53;1.63;;;11.90;53.70;;;;;;5007328;28;20049;-83
2021/04/18 00:08:49;;;;;;;2.53;1.70;;;11.80;53.70;;;;;;5052355;28;20025;-83
2021/04/18 00:11:16;;;;;;;2.83;1.55;;;11.80;53.70;;;;;;5046303;28;20032;-83
2021/04/18 00:13:42;;;;;;;3.03;1.70;;;11.80;53.80;;;;;;5026707;28;20032;-83
2021/04/18 00:16:08;;;;;;;1.90;1.50;;;11.80;53.90;;;;;;5033261;28;20374;-84
2021/04/18 00:18:34;;;;;;;2.05;1.60;;;11.70;53.80;;;;;;5024130;28;20033;-83
2021/04/18 00:21:00;;;;;;;2.55;1.80;;;11.70;53.90;;;;;;5039422;28;20038;-82
2021/04/18 00:23:25;;;;;;;2.15;1.65;;;11.70;54.00;;;;;;5024805;28;20033;-83
2021/04/18 00:25:52;;;;;;;2.47;1.65;;;11.60;54.00;;;;;;5040181;28;20101;-83
2021/04/18 00:28:17;;;;;;;3.05;1.70;;;11.60;54.00;;;;;;5039582;28;20227;-86
2021/04/18 00:30:43;;;;;;;2.53;1.50;;;11.50;54.00;;;;;;5052744;28;20025;-83
2021/04/18 00:33:09;;;;;;;2.38;1.60;;;11.50;54.10;;;;;;5055667;28;20044;-83
2021/04/18 00:35:35;;;;;;;2.47;1.55;;;11.50;54.20;;;;;;5055303;28;20097;-83
2021/04/18 00:38:00;;;;;;;2.05;1.70;;;11.40;54.10;;;;;;5008350;28;20390;-83
2021/04/18 00:40:26;;;;;;;2.95;1.85;;;11.40;54.20;;;;;;5030401;28;20111;-83
2021/04/18 00:42:53;;;;;;;2.53;1.60;;;11.40;54.20;;;;;;5015887;28;20104;-83
2021/04/18 00:45:22;;;;;;;2.47;1.70;;;11.30;54.30;;;;;;5027415;28;20339;-83
2021/04/18 00:47:53;;;;;;;2.75;1.80;;;11.30;54.30;;;;;;5024712;28;20148;-83
2021/04/18 00:50:28;;;;;;;2.83;1.70;;;11.30;54.40;;;;;;5044687;28;20028;-83
2021/04/18 00:52:54;;;;;;;2.47;1.60;;;11.30;54.50;;;;;;5041910;28;20036;-83
2021/04/18 00:55:23;;;;;;;2.45;1.65;;;11.20;54.40;;;;;;5033097;28;20078;-83
2021/04/18 00:57:50;;;;;;;2.63;1.52;;;11.20;55.20;;;;;;5035922;28;20067;-84
2021/04/18 01:00:17;;;;;;;2.30;1.55;;;11.10;54.50;;;;;;5030435;28;20043;-83
2021/04/18 01:02:43;;;;;;;3.08;1.95;;;11.10;54.60;;;;;;5023112;28;20463;-85
2021/04/18 01:05:09;;;;;;;2.45;1.55;;;11.10;54.60;;;;;;5022839;28;20112;-84
2021/04/18 01:07:36;;;;;;;2.42;1.80;;;11.10;54.60;;;;;;5039140;28;20029;-83
2021/04/18 01:10:05;;;;;;;2.60;1.90;;;11.00;54.70;;;;;;5038251;28;20021;-83
2021/04/18 01:12:31;;;;;;;3.72;1.95;;;11.00;54.70;;;;;;5044123;28;20037;-84
2021/04/18 01:14:57;;;;;;;3.92;1.92;;;11.00;54.80;;;;;;5034445;28;20116;-83
2021/04/18 01:17:25;;;;;;;3.03;1.90;;;11.00;54.80;;;;;;5021158;28;20072;-83
2021/04/18 01:19:51;;;;;;;3.10;1.92;;;10.90;54.80;;;;;;5033266;28;20354;-83
2021/04/18 01:22:17;;;;;;;2.33;1.60;;;10.90;54.80;;;;;;5048824;28;20032;-83
2021/04/18 01:24:55;;;;;;;4.00;2.20;;;10.90;54.90;;;;;;5023027;28;20097;-83
2021/04/18 01:27:50;;;;;;;2.25;1.63;;;10.80;54.90;;;;;;5039487;28;20032;-84
2021/04/18 01:30:20;;;;;;;4.20;1.73;;;10.80;54.90;;;;;;5039922;28;20077;-84
2021/04/18 01:32:49;;;;;;;3.50;1.70;;;10.80;55.00;;;;;;5038360;28;20033;-84
2021/04/18 01:35:15;;;;;;;3.13;2.08;;;10.70;55.00;;;;;;5035800;28;20031;-84
2021/04/18 01:37:42;;;;;;;3.40;2.08;;;10.70;55.10;;;;;;5037855;28;20016;-84
2021/04/18 01:40:16;;;;;;;3.00;1.88;;;10.70;55.10;;;;;;5035564;28;20505;-84
2021/04/18 01:42:44;;;;;;;3.42;1.88;;;10.60;55.10;;;;;;5039944;28;20028;-84
2021/04/18 01:45:12;;;;;;;2.95;1.70;;;10.60;55.20;;;;;;5072422;28;20028;-84
2021/04/18 01:47:39;;;;;;;2.70;1.73;;;10.60;55.80;;;;;;5037242;28;20025;-84
2021/04/18 01:50:11;;;;;;;2.95;2.00;;;10.50;55.10;;;;;;5046164;28;20058;-84
2021/04/18 01:52:38;;;;;;;3.45;1.90;;;10.50;55.30;;;;;;5036897;28;20282;-84
2021/04/18 01:55:07;;;;;;;3.25;1.85;;;10.50;55.30;;;;;;5045087;28;20037;-84
2021/04/18 01:57:34;;;;;;;3.65;2.30;;;10.50;56.00;;;;;;5049416;28;20052;-83
2021/04/18 02:00:06;;;;;;;3.95;2.20;;;10.40;55.90;;;;;;5035344;28;20027;-83
2021/04/18 02:02:41;;;;;;;2.50;1.73;;;10.40;55.30;;;;;;5037842;28;20151;-83
2021/04/18 02:05:22;;;;;;;3.35;2.00;;;10.40;55.40;;;;;;5049328;28;20037;-83
2021/04/18 02:07:48;;;;;;;2.97;2.00;;;10.30;55.40;;;;;;5042710;28;20401;-83
2021/04/18 02:10:14;;;;;;;3.15;2.03;;;10.30;55.40;;;;;;5026325;28;20033;-83
2021/04/18 02:12:44;;;;;;;2.83;1.90;;;10.30;55.50;;;;;;5026064;28;20044;-83
2021/04/18 02:15:14;;;;;;;3.97;2.42;;;10.20;55.50;;;;;;5034720;28;20029;-84
2021/04/18 02:17:40;;;;;;;3.83;2.25;;;10.20;55.50;;;;;;5019688;28;20063;-83
2021/04/18 02:20:07;;;;;;;3.33;1.90;;;10.20;55.50;;;;;;5035279;28;20052;-83
2021/04/18 02:22:34;;;;;;;2.53;1.60;;;10.10;55.50;;;;;;5038556;28;20036;-84
2021/04/18 02:25:02;;;;;;;5.22;2.30;;;10.10;55.60;;;;;;5054526;28;20083;-83
2021/04/18 02:27:28;;;;;;;2.90;1.92;;;10.10;55.60;;;;;;5025756;28;20107;-83
2021/04/18 02:30:02;;;;;;;3.67;1.98;;;10.10;55.60;;;;;;5043464;28;20060;-83
2021/04/18 02:32:32;;;;;;;3.63;2.30;;;10.10;55.60;;;;;;5028639;28;20131;-83
2021/04/18 02:35:02;;;;;;;2.45;1.73;;;10.10;55.70;;;;;;5037128;28;20024;-84
2021/04/18 02:37:29;;;;;;;3.45;1.92;;;10.00;55.60;;;;;;5059286;28;20164;-83
2021/04/18 02:39:55;;;;;;;2.78;2.03;;;10.00;55.70;;;;;;5042593;28;20370;-84
2021/04/18 02:42:21;;;;;;;3.25;1.90;;;10.00;55.70;;;;;;5041591;28;20112;-83
2021/04/18 02:44:47;;;;;;;2.47;1.83;;;9.90;55.70;;;;;;5027405;28;20029;-83
2021/04/18 02:47:14;;;;;;;2.50;1.88;;;9.90;55.70;;;;;;5023823;28;20032;-83
2021/04/18 02:49:47;;;;;;;3.20;1.98;;;9.90;55.80;;;;;;5024022;28;20029;-83
2021/04/18 02:52:14;;;;;;;3.08;2.20;;;9.80;55.80;;;;;;5026394;28;20040;-84
2021/04/18 02:54:40;;;;;;;2.97;1.98;;;9.80;55.80;;;;;;5042621;28;20035;-83
2021/04/18 02:57:08;;;;;;;2.97;2.08;;;9.80;55.80;;;;;;5036913;28;20465;-83
2021/04/18 02:59:35;;;;;;;3.00;2.15;;;9.80;55.90;;;;;;5006517;28;20029;-84
2021/04/18 03:02:01;;;;;;;3.47;2.33;;;9.70;55.90;;;;;;4990371;28;20478;-84
2021/04/18 03:04:29;;;;;;;3.15;2.15;;;9.70;55.90;;;;;;5030144;28;20033;-84
2021/04/18 03:06:56;;;;;;;3.55;2.30;;;9.70;56.00;;;;;;5023093;28;20029;-84
2021/04/18 03:09:21;;;;;;;3.50;1.98;;;9.70;55.90;;;;;;5024272;28;20032;-83
2021/04/18 03:11:51;;;;;;;3.13;2.10;;;9.60;56.00;;;;;;5029914;28;20041;-83
2021/04/18 03:14:25;;;;;;;2.75;1.95;;;9.60;56.00;;;;;;5030763;28;20035;-84
2021/04/18 03:16:52;;;;;;;3.00;2.00;;;9.60;56.00;;;;;;5038231;28;20040;-84
2021/04/18 03:19:18;;;;;;;4.07;2.20;;;9.60;56.00;;;;;;5048893;28;20101;-83
2021/04/18 03:21:48;;;;;;;3.65;2.28;;;9.50;56.00;;;;;;5033100;28;20099;-83
2021/04/18 03:24:15;;;;;;;2.53;2.05;;;9.50;56.10;;;;;;5031788;28;20041;-83
2021/04/18 03:26:41;;;;;;;3.30;2.05;;;9.50;56.10;;;;;;5030181;28;20466;-85
2021/04/18 03:29:07;;;;;;;3.60;2.38;;;9.40;56.10;;;;;;5005411;28;20068;-84
2021/04/18 03:31:34;;;;;;;3.78;2.05;;;9.40;56.20;;;;;;5008738;28;20044;-84
2021/04/18 03:34:04;;;;;;;3.10;2.10;;;9.40;56.20;;;;;;5037612;28;20025;-84
2021/04/18 03:36:31;;;;;;;3.70;2.08;;;9.40;56.20;;;;;;5035470;28;20025;-83
2021/04/18 03:39:07;;;;;;;4.13;2.15;;;9.30;56.20;;;;;;5036537;28;20111;-83
2021/04/18 03:41:33;;;;;;;3.30;2.15;;;9.30;56.20;;;;;;5020020;28;20092;-83
2021/04/18 03:43:59;;;;;;;3.55;2.40;;;9.30;56.30;;;;;;5024200;28;20491;-83
2021/04/18 03:46:28;;;;;;;3.05;1.98;;;9.30;56.30;;;;;;5044095;28;20399;-83
2021/04/18 03:48:54;;;;;;;4.30;2.28;;;9.20;56.30;;;;;;5037915;28;20112;-83
2021/04/18 03:51:21;;;;;;;3.25;2.00;;;9.20;56.30;;;;;;5027525;28;20032;-83
2021/04/18 03:53:53;;;;;;;3.28;2.38;;;9.20;56.40;;;;;;5050340;28;20055;-83
2021/04/18 03:56:23;;;;;;;3.33;2.38;;;9.20;56.40;;;;;;5023637;28;20028;-83
2021/04/18 03:58:51;;;;;;;4.68;2.45;;;9.10;56.40;;;;;;5052187;28;20028;-84
2021/04/18 04:01:21;;;;;;;3.30;2.30;;;9.10;56.40;;;;;;5036755;28;20025;-84
2021/04/18 04:03:48;;;;;;;2.70;2.08;;;9.10;56.40;;;;;;5040665;28;20024;-83
2021/04/18 04:06:16;;;;;;;3.83;2.05;;;9.00;56.40;;;;;;5028186;28;20495;-83
2021/04/18 04:08:45;;;;;;;3.38;2.28;;;9.00;56.50;;;;;;5024607;28;20488;-87
2021/04/18 04:11:14;;;;;;;3.70;2.47;;;9.00;56.50;;;;;;5029239;28;20032;-88
2021/04/18 04:13:44;;;;;;;3.33;2.25;;;9.00;57.10;;;;;;5033383;28;20489;-86
2021/04/18 04:16:10;;;;;;;4.43;2.65;;;9.00;56.50;;;;;;5019768;28;20051;-86
2021/04/18 04:18:37;;;;;;;2.92;2.25;;;8.90;56.50;;;;;;5023220;28;20033;-87
2021/04/18 04:21:21;;;;;;;3.70;2.50;;;8.90;56.50;;;;;;5036408;28;20052;-87
2021/04/18 04:24:14;;;;;;;3.55;2.20;;;8.90;56.50;;;;;;5020445;28;20072;-87
2021/04/18 04:26:39;;;;;;;3.15;2.30;;;8.90;56.50;;;;;;5036382;28;20020;-86
2021/04/18 04:29:05;;;;;;;4.57;2.58;;;8.80;56.60;;;;;;5052168;28;20021;-86
2021/04/18 04:31:31;;;;;;;4.68;2.50;;;8.80;56.60;;;;;;5042491;28;21755;-86
2021/04/18 04:33:57;;;;;;;3.88;2.40;;;8.80;56.70;;;;;;5051312;28;20037;-88
2021/04/18 04:36:23;;;;;;;3.58;2.60;;;8.80;56.70;;;;;;5044344;28;20463;-87
2021/04/18 04:38:49;;;;;;;4.28;2.63;;;8.80;56.80;;;;;;5039684;28;20060;-87
2021/04/18 04:41:16;;;;;;;4.15;2.42;;;8.70;56.70;;;;;;5037412;28;20025;-88
2021/04/18 04:43:43;;;;;;;3.25;2.35;;;8.70;56.70;;;;;;5028652;28;20033;-88
2021/04/18 04:46:09;;;;;;;3.83;2.45;;;8.70;56.70;;;;;;5038076;28;20035;-87
2021/04/18 04:48:35;;;;;;;3.88;2.60;;;8.70;56.80;;;;;;5045342;28;20033;-88
2021/04/18 04:51:00;;;;;;;3.30;2.30;;;8.60;56.80;;;;;;5034143;28;20465;-88
2021/04/18 04:53:26;;;;;;;3.72;2.60;;;8.60;56.80;;;;;;5038703;28;20132;-88
2021/04/18 04:55:52;;;;;;;3.13;2.15;;;8.60;56.80;;;;;;5026434;28;20493;-87
2021/04/18 04:58:18;;;;;;;4.30;2.58;;;8.60;56.80;;;;;;5032933;28;20032;-88
2021/04/18 05:00:43;;;;;;;4.63;2.67;;;8.50;56.80;;;;;;5069877;28;20102;-87
2021/04/18 05:03:09;;;;;;;3.80;2.42;;;8.60;56.90;;;;;;5022067;28;20424;-88
2021/04/18 05:05:35;;;;;;;3.65;2.38;;;8.50;56.90;;;;;;5046260;28;20044;-88
2021/04/18 05:08:01;;;;;;;2.85;2.20;;;8.50;56.90;;;;;;5039682;28;20059;-88
2021/04/18 05:10:27;;;;;;;4.15;2.53;;;8.50;56.90;;;;;;5049732;28;20017;-88
2021/04/18 05:12:53;;;;;;;3.38;2.25;;;8.40;56.90;;;;;;5019515;28;20114;-89
2021/04/18 05:15:22;;;;;;;3.67;2.22;;;8.40;56.90;;;;;;5046759;28;20029;-88
2021/04/18 05:17:51;;;;;;;5.47;2.53;;;8.40;56.90;;;;;;5037580;28;20107;-88
2021/04/18 05:20:18;;;;;;;4.22;2.47;;;8.40;57.00;;;;;;5043594;28;20051;-88
2021/04/18 05:22:44;;;;;;;3.78;2.42;;;8.40;57.00;;;;;;5044117;28;20025;-88
2021/04/18 05:25:12;;;;;;;4.30;2.35;;;8.40;57.10;;;;;;5068024;28;20044;-88
2021/04/18 05:27:38;;;;;;;5.50;2.55;;;8.40;57.10;;;;;;5055111;28;20040;-88
2021/04/18 05:30:05;;;;;;;3.53;2.72;;;8.30;57.00;;;;;;5022880;28;20023;-88
2021/04/18 05:32:32;;;;;;;3.60;2.42;;;8.30;57.30;;;;;;5022489;28;20032;-89
2021/04/18 05:34:58;;;;;;;3.78;2.45;;;8.30;57.10;;;;;;5024518;28;20029;-90
2021/04/18 05:37:23;;;;;;;3.70;2.38;;;8.30;57.10;;;;;;5024991;28;20032;-88
2021/04/18 05:39:49;;;;;;;4.32;2.90;;;8.30;57.20;;;;;;5022040;28;20647;-87
2021/04/18 05:42:15;;;;;;;4.78;2.80;;;8.30;57.20;;;;;;5023713;28;20093;-87
2021/04/18 05:44:41;;;;;;;3.42;2.45;;;8.20;57.20;;;;;;5048350;28;20029;-87
2021/04/18 05:47:06;;;;;;;3.15;2.17;;;8.20;57.20;;;;;;5029542;28;20507;-87
2021/04/18 05:49:33;;;;;;;4.20;2.70;;;8.20;57.20;;;;;;5043517;28;20025;-87
2021/04/18 05:51:59;;;;;;;3.45;2.28;;;8.20;57.30;;;;;;5045748;28;20037;-86
2021/04/18 05:54:25;;;;;;;5.05;2.72;;;8.20;57.30;;;;;;5037731;28;20096;-86
2021/04/18 05:56:50;;;;;;;4.38;2.63;;;8.20;57.30;;;;;;5034955;28;20029;-86
2021/04/18 05:59:16;;;;;;;3.22;2.25;;;8.20;57.30;;;;;;5008613;28;20037;-87
2021/04/18 06:01:43;;;;;;;4.68;2.75;;;8.20;57.40;;;;;;5018284;28;20056;-87
2021/04/18 06:04:09;;;;;;;3.45;2.55;;;8.20;57.40;;;;;;5048782;28;20028;-88
2021/04/18 06:06:35;;;;;;;3.78;2.38;;;8.20;57.40;;;;;;5039960;28;20047;-89
2021/04/18 06:09:01;;;;;;;3.20;2.42;;;8.20;57.40;;;;;;5030220;28;20037;-87
2021/04/18 06:11:26;;;;;;;3.47;2.30;;;8.20;57.50;;;;;;5037395;28;20040;-88
2021/04/18 06:13:52;;;;;;;4.63;2.45;;;8.20;57.50;;;;;;5029822;28;20052;-87
2021/04/18 06:16:18;;;;;;;4.05;2.72;;;8.20;57.50;;;;;;5029095;28;20041;-88
2021/04/18 06:18:44;;;;;;;3.92;2.45;;;8.10;57.50;;;;;;5051687;28;20028;-87
2021/04/18 06:21:09;;;;;;;3.45;2.40;;;8.10;57.50;;;;;;5017352;28;20028;-88
2021/04/18 06:23:35;;;;;;;4.90;2.80;;;8.10;57.50;;;;;;5034839;28;20140;-88
2021/04/18 06:26:01;;;;;;;3.25;2.40;;;8.10;57.50;;;;;;5012529;28;20025;-88
2021/04/18 06:28:27;;;;;;;2.90;2.20;;;8.10;57.60;;;;;;5049192;28;20060;-88
2021/04/18 06:30:53;;;;;;;3.28;2.35;;;8.10;57.60;;;;;;5054850;28;20086;-88
2021/04/18 06:33:19;;;;;;;4.00;2.63;;;8.10;57.60;;;;;;5035167;28;20037;-88
2021/04/18 06:35:45;;;;;;;4.25;2.63;;;8.10;57.70;;;;;;5032472;28;20457;-88
2021/04/18 06:38:12;;;;;;;3.47;2.05;;;8.10;57.70;;;;;;5030824;28;20469;-88
2021/04/18 06:40:38;;;;;;;3.50;2.42;;;8.10;57.70;;;;;;5037881;28;20040;-88
2021/04/18 06:43:08;;;;;;;3.67;2.60;;;8.20;57.80;;;;;;5038924;28;20052;-88
2021/04/18 06:45:35;;;;;;;3.65;2.40;;;8.10;57.70;;;;;;5049013;28;20021;-88
2021/04/18 06:48:01;;;;;;;4.03;2.28;;;8.10;57.70;;;;;;5029394;28;20062;-90
2021/04/18 06:50:27;;;;;;;3.00;2.33;;;8.20;57.80;;;;;;5058074;28;20036;-89
2021/04/18 06:52:53;;;;;;;3.53;2.15;;;8.20;57.70;;;;;;5056751;28;20033;-89
2021/04/18 06:55:19;;;;;;;3.15;2.00;;;8.20;57.80;;;;;;5037359;28;20028;-89
2021/04/18 06:57:45;;;;;;;4.18;2.33;;;8.20;57.80;;;;;;5028902;28;20033;-88
2021/04/18 07:00:13;;;;;;;3.50;2.30;;;8.20;57.80;;;;;;5057236;28;20020;-89
2021/04/18 07:02:40;;;;;;;3.85;2.30;;;8.20;57.80;;;;;;5052611;28;20040;-90
2021/04/18 07:05:14;;;;;;;3.88;2.47;;;8.20;57.80;;;;;;5052681;28;20059;-90
2021/04/18 07:07:45;;;;;;;4.60;2.40;;;8.20;57.90;;;;;;5041466;28;20119;-88
2021/04/18 07:10:27;;;;;;;3.63;2.40;;;8.20;57.90;;;;;;5053252;28;20025;-86
2021/04/18 07:12:55;;;;;;;4.10;2.30;;;8.20;57.90;;;;;;5049115;28;20272;-86
2021/04/18 07:15:35;;;;;;;3.83;2.28;;;8.20;57.90;;;;;;5047413;28;20514;-86
2021/04/18 07:18:01;;;;;;;3.60;2.20;;;8.30;58.10;;;;;;5054756;28;20021;-87
2021/04/18 07:20:27;;;;;;;3.15;2.10;;;8.30;58.00;;;;;;5053134;28;20032;-87
2021/04/18 07:22:53;;;;;;;3.58;2.40;;;8.30;58.00;;;;;;5031005;28;20157;-87
2021/04/18 07:25:30;;;;;;;3.30;2.13;;;8.30;58.00;;;;;;5057389;28;20087;-86
2021/04/18 07:27:56;;;;;;;3.40;2.33;;;8.30;58.20;;;;;;5049099;28;20461;-87
2021/04/18 07:30:24;;;;;;;2.75;1.90;;;8.30;58.10;;;;;;5067926;28;20028;-86
2021/04/18 07:33:07;;;;;;;4.03;2.03;;;8.40;58.20;;;;;;5041676;28;20043;-87
2021/04/18 07:35:41;;;;;;;3.40;2.45;;;8.40;58.30;;;;;;5052848;28;20025;-86
2021/04/18 07:38:15;;;;;;;3.47;2.20;;;8.40;58.20;;;;;;5034783;28;20090;-88
2021/04/18 07:40:41;;;;;;;3.97;2.58;;;8.40;58.30;;;;;;5056775;28;20029;-88
2021/04/18 07:43:09;;;;;;;4.07;2.58;;;8.40;58.30;;;;;;5038167;28;20535;-88
2021/04/18 07:45:35;;;;;;;4.18;2.60;;;8.50;58.40;;;;;;5038236;28;20033;-90
2021/04/18 07:48:02;;;;;;;2.92;2.17;;;8.50;58.40;;;;;;5058569;28;20020;-88
2021/04/18 07:50:28;;;;;;;3.22;2.42;;;8.50;58.40;;;;;;5050856;28;20039;-88
2021/04/18 07:52:54;;;;;;;3.80;2.22;;;8.60;58.50;;;;;;5037907;28;20041;-88
2021/04/18 07:55:21;;;;;;;3.03;2.13;;;8.60;58.50;;;;;;5033295;28;20029;-88
2021/04/18 07:57:47;;;;;;;3.00;2.38;;;8.60;58.60;;;;;;5054872;28;20492;-89
2021/04/18 08:00:14;;;;;;;3.20;2.05;;;8.60;58.60;;;;;;5036801;28;20104;-88
2021/04/18 08:02:48;;;;;;;2.92;2.00;;;8.60;58.60;;;;;;5028544;28;20029;-88
2021/04/18 08:05:15;;;;;;;3.60;2.20;;;8.70;58.60;;;;;;5042788;28;20037;-87
2021/04/18 08:08:00;;;;;;;2.92;2.13;;;8.70;58.70;;;;;;5030467;28;20025;-89
2021/04/18 08:10:28;;;;;;;3.27;2.20;;;8.70;58.80;;;;;;5068113;28;20035;-85
2021/04/18 08:13:06;;;;;;;2.67;2.03;;;8.80;58.70;;;;;;5029672;28;20041;-87
2021/04/18 08:15:33;;;;;;;3.35;1.90;;;8.80;58.80;;;;;;5044277;28;20517;-84
2021/04/18 08:18:12;;;;;;;3.10;2.28;;;8.80;59.40;;;;;;5040316;28;20097;-84
2021/04/18 08:20:40;;;;;;;3.20;2.10;;;8.90;58.90;;;;;;5038664;28;20075;-86
2021/04/18 08:23:09;;;;;;;3.08;2.20;;;8.90;59.40;;;;;;5038901;28;20047;-85
2021/04/18 08:25:37;;;;;;;3.28;2.22;;;9.00;58.80;;;;;;5047290;28;20032;-88
2021/04/18 08:28:10;;;;;;;3.10;2.03;;;9.00;58.80;;;;;;5041068;28;20024;-88
2021/04/18 08:31:07;;;;;;;3.72;2.05;;;9.10;58.80;;;;;;5028310;28;20095;-86
2021/04/18 08:33:39;;;;;;;3.58;2.10;;;9.10;58.80;;;;;;5045237;28;20033;-83
2021/04/18 08:36:25;;;;;;;1.98;1.73;;;9.20;58.70;;;;;;5062570;28;20099;-86
2021/04/18 08:39:01;;;;;;;2.65;2.00;;;9.20;58.80;;;;;;5026132;28;20019;-85
2021/04/18 08:41:42;;;;;;;;;;;9.30;58.60;;;;;;5048830;28;20056;-83
2021/04/18 08:44:15;;;;;;;3.20;2.10;;;9.30;58.40;;;;;;5048740;28;19999;-84
2021/04/18 08:46:42;;;;;;;3.42;2.20;;;9.40;58.30;;;;;;5049376;28;20029;-85
2021/04/18 08:49:09;;;;;;;2.78;1.92;;;9.50;58.40;;;;;;5036612;28;20035;-85
2021/04/18 08:51:39;;;;;;;3.78;2.35;;;9.50;58.40;;;;;;5054284;28;20066;-85
2021/04/18 08:54:06;;;;;;;2.85;2.05;;;9.60;58.40;;;;;;5045288;28;20029;-83
2021/04/18 08:56:47;;;;;;;2.20;1.88;;;9.60;58.40;;;;;;5050543;28;20029;-84
2021/04/18 08:59:15;;;;;;;3.70;2.00;;;9.70;58.50;;;;;;5048399;28;20024;-83
2021/04/18 09:02:06;;;;;;;2.97;2.20;;;9.80;58.40;;;;;;5029560;28;20105;-92
2021/04/18 09:04:37;;;;;;;2.97;2.03;;;9.90;58.50;;;;;;5032666;28;20114;-85
2021/04/18 09:07:05;;;;;;;3.45;2.25;;;10.00;58.40;;;;;;5045141;28;20029;-84
2021/04/18 09:09:31;;;;;;;2.72;2.13;;;10.00;58.30;;;;;;5039200;28;20031;-84
2021/04/18 09:11:58;;;;;;;3.65;2.30;;;10.10;58.40;;;;;;5035912;28;20029;-83
2021/04/18 09:14:31;;;;;;;2.92;2.00;;;10.20;58.40;;;;;;5037053;28;20107;-81
2021/04/18 09:17:13;;;;;;;3.05;2.20;;;10.20;58.40;;;;;;5027510;28;20070;-81
2021/04/18 09:19:41;;;;;;;3.75;2.55;;;10.30;58.50;;;;;;5048667;28;20457;-80
2021/04/18 09:22:14;;;;;;;3.05;2.20;;;10.40;58.50;;;;;;5050462;28;20040;-78
2021/04/18 09:24:52;;;;;;;2.90;2.10;;;10.50;58.50;;;;;;5045072;28;20052;-82
2021/04/18 09:27:24;;;;;;;2.38;1.75;;;10.60;58.70;;;;;;5043258;28;20028;-80
2021/04/18 09:29:57;;;;;;;2.97;1.92;;;10.60;58.60;;;;;;5037874;28;20029;-81
2021/04/18 09:32:31;;;;;;;4.28;2.50;;;10.70;58.70;;;;;;5042276;28;20028;-81
2021/04/18 09:34:58;;;;;;;2.57;1.97;;;10.80;58.80;;;;;;5023453;28;20033;-79
2021/04/18 09:37:26;;;;;;;2.65;1.90;;;10.90;58.70;;;;;;5014349;28;20294;-78
2021/04/18 09:39:59;;;;;;;3.05;1.90;;;11.00;58.70;;;;;;5021572;28;20032;-81
2021/04/18 09:42:30;;;;;;;3.55;2.20;;;11.10;58.80;;;;;;5066444;28;20091;-78
2021/04/18 09:45:13;;;;;;;3.67;2.20;;;11.20;58.80;;;;;;5034998;28;20033;-85
2021/04/18 09:47:41;;;;;;;2.65;2.10;;;11.30;58.90;;;;;;5048787;28;20124;-83
2021/04/18 09:50:22;;;;;;;4.03;2.50;;;11.40;59.00;;;;;;5046382;28;20427;-83
2021/04/18 09:52:50;;;;;;;3.47;2.38;;;11.60;58.80;;;;;;5038835;28;20033;-86
2021/04/18 09:55:23;;;;;;;3.17;2.25;;;11.70;57.90;;;;;;5063212;28;20033;-85
2021/04/18 09:57:53;;;;;;;3.97;2.47;;;11.90;57.30;;;;;;5050319;28;20033;-85
2021/04/18 10:00:28;;;;;;;4.88;2.65;;;12.10;56.70;;;;;;5042954;28;20021;-86
2021/04/18 10:03:10;;;;;;;4.32;2.70;;;12.20;56.20;;;;;;5051965;28;20028;-86
2021/04/18 10:05:43;;;;;;;3.97;2.50;;;12.40;55.90;;;;;;5036342;28;20024;-85
2021/04/18 10:08:21;;;;;;;3.58;2.42;;;12.60;55.80;;;;;;5032180;28;20027;-86
2021/04/18 10:10:49;;;;;;;4.50;2.50;;;12.70;55.70;;;;;;5027077;28;20561;-88
2021/04/18 10:13:33;;;;;;;3.50;2.10;;;12.90;55.30;;;;;;5021784;28;20036;-88
2021/04/18 10:16:01;;;;;;;3.88;2.63;;;13.00;54.80;;;;;;5052182;28;20531;-85
2021/04/18 10:18:27;;;;;;;5.35;2.78;;;13.10;54.90;;;;;;5030477;28;20537;-86
2021/04/18 10:21:13;;;;;;;4.57;2.45;;;13.30;55.20;;;;;;5023497;28;20123;-87
2021/04/18 10:23:39;;;;;;;3.75;2.40;;;13.50;55.40;;;;;;5060009;28;20048;-85
2021/04/18 10:26:05;;;;;;;5.10;2.63;;;13.60;55.10;;;;;;5030099;28;20031;-86
2021/04/18 10:28:30;;;;;;;7.22;2.80;;;13.70;55.20;;;;;;5012491;28;20090;-88
2021/04/18 10:30:56;;;;;;;4.82;2.97;;;13.90;55.50;;;;;;5033923;28;20020;-89
2021/04/18 10:33:22;;;;;;;4.63;2.78;;;14.00;55.50;;;;;;5022913;28;20482;-85
2021/04/18 10:35:48;;;;;;;5.25;3.00;;;14.10;55.00;;;;;;5047573;28;20035;-85
2021/04/18 10:38:14;;;;;;;5.72;3.05;;;14.30;54.80;;;;;;5040106;28;20033;-88
2021/04/18 10:40:39;;;;;;;5.80;3.30;;;14.40;55.40;;;;;;5039480;28;20040;-86
2021/04/18 10:43:07;;;;;;;5.15;2.80;;;14.50;54.80;;;;;;5043744;28;20044;-85
2021/04/18 10:45:32;;;;;;;5.13;2.92;;;14.60;54.70;;;;;;5031804;28;20071;-86
2021/04/18 10:47:58;;;;;;;4.60;2.60;;;14.70;54.60;;;;;;5072977;28;20461;-86
2021/04/18 10:50:24;;;;;;;4.70;2.78;;;14.80;54.30;;;;;;5040913;28;20473;-88
2021/04/18 10:52:50;;;;;;;5.63;2.83;;;14.90;53.90;;;;;;5042547;28;20036;-88
2021/04/18 10:55:16;;;;;;;3.83;2.70;;;15.00;53.60;;;;;;5025856;28;20488;-87
2021/04/18 10:57:42;;;;;;;4.57;3.03;;;15.10;53.30;;;;;;5051306;28;20032;-87
2021/04/18 11:00:08;;;;;;;3.53;2.55;;;15.20;53.00;;;;;;5047498;28;20347;-88
2021/04/18 11:02:34;;;;;;;4.68;2.70;;;15.40;52.80;;;;;;5024312;28;20032;-87
2021/04/18 11:05:00;;;;;;;4.18;2.67;;;15.40;52.50;;;;;;5017267;28;20036;-87
2021/04/18 11:07:26;;;;;;;4.95;3.17;;;15.50;52.40;;;;;;5025232;28;20389;-86
2021/04/18 11:09:52;;;;;;;5.60;3.13;;;15.60;52.20;;;;;;5047155;28;20025;-86
2021/04/18 11:12:19;;;;;;;4.20;2.80;;;15.70;52.10;;;;;;5025880;28;20489;-87
2021/04/18 11:14:45;;;;;;;6.03;3.13;;;15.80;52.00;;;;;;5027464;28;20040;-86
2021/04/18 11:17:11;;;;;;;5.10;2.90;;;16.00;52.10;;;;;;5056142;28;20554;-87
2021/04/18 11:19:37;;;;;;;4.57;2.67;;;16.00;52.00;;;;;;5031382;28;20381;-85
2021/04/18 11:22:04;;;;;;;6.20;3.53;;;16.10;52.00;;;;;;5040200;28;20029;-85
2021/04/18 11:24:29;;;;;;;5.13;3.17;;;16.20;52.10;;;;;;5061475;28;20054;-89
2021/04/18 11:26:56;;;;;;;6.40;3.22;;;16.30;52.10;;;;;;5045223;28;20024;-88
2021/04/18 11:29:22;;;;;;;5.03;3.03;;;16.40;52.00;;;;;;5039718;28;20036;-88
2021/04/18 11:31:47;;;;;;;4.57;2.83;;;16.60;52.00;;;;;;5038892;28;20332;-89
2021/04/18 11:34:13;;;;;;;4.35;3.15;;;16.60;51.90;;;;;;5037375;28;20884;-89
2021/04/18 11:36:40;;;;;;;4.88;2.85;;;16.80;51.80;;;;;;5056458;28;20070;-88
2021/04/18 11:39:05;;;;;;;5.00;3.13;;;16.90;52.40;;;;;;5040837;28;20033;-86
2021/04/18 11:41:32;;;;;;;4.72;2.92;;;17.00;51.60;;;;;;5009499;28;20381;-88
2021/04/18 11:44:02;;;;;;;6.07;3.17;;;17.00;51.50;;;;;;5058778;28;20060;-86
2021/04/18 11:46:28;;;;;;;3.83;2.50;;;17.10;51.40;;;;;;5041702;28;20118;-87
2021/04/18 11:48:54;;;;;;;4.88;3.03;;;17.10;51.20;;;;;;5038730;28;20032;-85
2021/04/18 11:51:20;;;;;;;4.15;2.83;;;17.20;51.20;;;;;;5056254;28;20024;-86
2021/04/18 11:53:46;;;;;;;4.38;2.92;;;17.20;51.10;;;;;;5029004;28;20065;-86
2021/04/18 11:56:13;;;;;;;4.53;2.97;;;17.40;51.10;;;;;;5051580;28;20079;-86
2021/04/18 11:58:38;;;;;;;4.88;2.90;;;17.40;50.90;;;;;;5030696;28;20020;-86
2021/04/18 12:01:05;;;;;;;5.03;3.10;;;17.50;50.80;;;;;;5040309;28;20105;-86
2021/04/18 12:03:30;;;;;;;4.50;2.65;;;17.60;50.90;;;;;;5030127;28;20032;-89
2021/04/18 12:05:57;;;;;;;5.22;3.00;;;17.70;50.90;;;;;;5039754;28;20509;-86
2021/04/18 12:08:23;;;;;;;4.90;2.88;;;17.70;50.90;;;;;;5037148;28;20035;-87
2021/04/18 12:10:50;;;;;;;4.90;3.10;;;17.80;50.70;;;;;;5049724;28;20029;-87
2021/04/18 12:13:15;;;;;;;4.80;2.63;;;17.90;50.60;;;;;;5039583;28;20025;-87
2021/04/18 12:15:44;;;;;;;6.03;2.60;;;18.00;50.60;;;;;;5030403;28;20381;-86
2021/04/18 12:18:10;;;;;;;4.35;3.20;;;18.00;50.50;;;;;;5053983;28;20059;-87
2021/04/18 12:20:36;;;;;;;4.47;2.78;;;18.10;50.50;;;;;;5042612;28;20040;-86
2021/04/18 12:23:02;;;;;;;4.25;2.63;;;18.10;50.30;;;;;;5029270;28;20033;-86
2021/04/18 12:25:28;;;;;;;4.97;2.85;;;18.20;50.20;;;;;;5030167;28;20114;-86
2021/04/18 12:27:54;;;;;;;4.07;2.65;;;18.20;50.10;;;;;;5056217;28;20037;-86
2021/04/18 12:30:22;;;;;;;4.05;2.55;;;18.30;50.10;;;;;;5022948;28;20047;-86
2021/04/18 12:32:47;;;;;;;4.47;2.83;;;18.40;50.00;;;;;;5042196;28;20051;-85
2021/04/18 12:35:15;;;;;;;5.63;3.00;;;18.40;49.90;;;;;;5030705;28;20466;-87
2021/04/18 12:37:41;;;;;;;4.28;2.80;;;18.50;49.70;;;;;;5033943;28;20040;-83
2021/04/18 12:40:08;;;;;;;4.32;2.65;;;18.50;49.50;;;;;;5047964;28;20025;-83
2021/04/18 12:42:35;;;;;;;4.30;2.78;;;18.60;49.40;;;;;;5038649;28;20024;-83
2021/04/18 12:45:03;;;;;;;3.85;2.63;;;18.60;49.30;;;;;;5029808;28;20033;-84
2021/04/18 12:47:29;;;;;;;5.30;3.10;;;18.60;49.30;;;;;;5022877;28;20043;-83
2021/04/18 12:49:56;;;;;;;5.00;2.92;;;18.70;49.20;;;;;;5026571;28;20028;-82
2021/04/18 12:52:21;;;;;;;4.80;3.03;;;18.70;49.00;;;;;;5038480;28;20198;-84
2021/04/18 12:54:47;;;;;;;5.43;2.80;;;18.80;48.80;;;;;;5049086;28;20037;-83
2021/04/18 12:57:16;;;;;;;6.43;3.00;;;18.80;48.60;;;;;;5032442;28;20531;-83
2021/04/18 12:59:43;;;;;;;4.25;2.78;;;18.90;48.40;;;;;;5008585;28;20111;-83